sensor_id;sensor_type;location;lat;lon;timestamp;P1;durP1;ratioP1;P2;durP2;ratioP2
2406;SDS011;37709;53.480;9.688;2023-03-19T00:00:44;8.20;;;7.37;;
2406;SDS011;37709;53.480;9.688;2023-03-19T00:03:12;11.07;;;7.87;;
2406;SDS011;37709;53.480;9.688;2023-03-19T00:05:39;9.77;;;7.53;;
2406;SDS011;37709;53.480;9.688;2023-03-19T00:08:06;7.40;;;6.80;;
2406;SDS011;37709;53.480;9.688;2023-03-19T00:10:36;7.70;;;7.00;;
2406;SDS011;37709;53.480;9.688;2023-03-19T00:13:05;7.63;;;6.77;;
2406;SDS011;37709;53.480;9.688;2023-03-19T00:15:32;7.00;;;6.30;;
2406;SDS011;37709;53.480;9.688;2023-03-19T00:18:01;7.07;;;6.30;;
2406;SDS011;37709;53.480;9.688;2023-03-19T00:20:28;7.23;;;6.53;;
2406;SDS011;37709;53.480;9.688;2023-03-19T00:22:55;7.90;;;6.50;;
2406;SDS011;37709;53.480;9.688;2023-03-19T00:25:22;7.93;;;6.90;;
2406;SDS011;37709;53.480;9.688;2023-03-19T00:27:49;9.20;;;7.00;;
2406;SDS011;37709;53.480;9.688;2023-03-19T00:30:18;10.43;;;6.43;;
2406;SDS011;37709;53.480;9.688;2023-03-19T00:32:47;7.63;;;6.70;;
2406;SDS011;37709;53.480;9.688;2023-03-19T00:35:14;10.70;;;6.47;;
2406;SDS011;37709;53.480;9.688;2023-03-19T00:37:42;7.40;;;6.57;;
2406;SDS011;37709;53.480;9.688;2023-03-19T00:40:09;8.63;;;7.10;;
2406;SDS011;37709;53.480;9.688;2023-03-19T00:42:38;8.93;;;6.73;;
2406;SDS011;37709;53.480;9.688;2023-03-19T00:45:05;8.80;;;7.30;;
2406;SDS011;37709;53.480;9.688;2023-03-19T00:47:34;7.93;;;5.93;;
2406;SDS011;37709;53.480;9.688;2023-03-19T00:50:02;6.17;;;5.47;;
2406;SDS011;37709;53.480;9.688;2023-03-19T00:52:34;5.57;;;5.03;;
2406;SDS011;37709;53.480;9.688;2023-03-19T00:55:02;6.73;;;5.33;;
2406;SDS011;37709;53.480;9.688;2023-03-19T00:57:29;5.60;;;5.10;;
2406;SDS011;37709;53.480;9.688;2023-03-19T00:59:56;8.70;;;6.77;;
2406;SDS011;37709;53.480;9.688;2023-03-19T01:02:24;5.37;;;4.70;;
2406;SDS011;37709;53.480;9.688;2023-03-19T01:04:51;5.00;;;4.50;;
2406;SDS011;37709;53.480;9.688;2023-03-19T01:07:18;4.27;;;3.80;;
2406;SDS011;37709;53.480;9.688;2023-03-19T01:09:46;4.90;;;4.40;;
2406;SDS011;37709;53.480;9.688;2023-03-19T01:12:14;5.20;;;4.70;;
2406;SDS011;37709;53.480;9.688;2023-03-19T01:14:41;4.70;;;3.83;;
2406;SDS011;37709;53.480;9.688;2023-03-19T01:17:09;4.53;;;4.13;;
2406;SDS011;37709;53.480;9.688;2023-03-19T01:19:36;5.93;;;4.13;;
2406;SDS011;37709;53.480;9.688;2023-03-19T01:22:03;3.83;;;3.53;;
2406;SDS011;37709;53.480;9.688;2023-03-19T01:24:32;5.90;;;4.47;;
2406;SDS011;37709;53.480;9.688;2023-03-19T01:27:00;3.87;;;3.53;;
2406;SDS011;37709;53.480;9.688;2023-03-19T01:29:31;4.33;;;3.97;;
2406;SDS011;37709;53.480;9.688;2023-03-19T01:32:08;4.40;;;3.83;;
2406;SDS011;37709;53.480;9.688;2023-03-19T01:34:39;5.10;;;3.90;;
2406;SDS011;37709;53.480;9.688;2023-03-19T01:37:08;5.23;;;4.73;;
2406;SDS011;37709;53.480;9.688;2023-03-19T01:39:37;5.40;;;4.00;;
2406;SDS011;37709;53.480;9.688;2023-03-19T01:42:08;4.73;;;3.93;;
2406;SDS011;37709;53.480;9.688;2023-03-19T01:44:43;3.57;;;3.27;;
2406;SDS011;37709;53.480;9.688;2023-03-19T01:47:31;4.40;;;3.63;;
2406;SDS011;37709;53.480;9.688;2023-03-19T01:53:40;4.00;;;3.60;;
2406;SDS011;37709;53.480;9.688;2023-03-19T01:59:22;3.93;;;3.53;;
2406;SDS011;37709;53.480;9.688;2023-03-19T02:02:11;4.10;;;3.70;;
2406;SDS011;37709;53.480;9.688;2023-03-19T02:05:06;4.10;;;3.70;;
2406;SDS011;37709;53.480;9.688;2023-03-19T02:07:37;4.23;;;3.83;;
2406;SDS011;37709;53.480;9.688;2023-03-19T02:10:11;4.57;;;3.80;;
2406;SDS011;37709;53.480;9.688;2023-03-19T02:12:41;4.67;;;3.90;;
2406;SDS011;37709;53.480;9.688;2023-03-19T02:15:09;3.90;;;3.50;;
2406;SDS011;37709;53.480;9.688;2023-03-19T02:17:38;5.10;;;3.77;;
2406;SDS011;37709;53.480;9.688;2023-03-19T02:22:47;3.63;;;3.33;;
2406;SDS011;37709;53.480;9.688;2023-03-19T02:25:33;3.73;;;3.43;;
2406;SDS011;37709;53.480;9.688;2023-03-19T02:28:11;3.70;;;3.17;;
2406;SDS011;37709;53.480;9.688;2023-03-19T02:30:42;3.87;;;3.47;;
2406;SDS011;37709;53.480;9.688;2023-03-19T02:33:11;4.13;;;3.00;;
2406;SDS011;37709;53.480;9.688;2023-03-19T02:35:39;4.43;;;3.30;;
2406;SDS011;37709;53.480;9.688;2023-03-19T02:38:08;4.60;;;3.87;;
2406;SDS011;37709;53.480;9.688;2023-03-19T02:40:38;4.33;;;3.50;;
2406;SDS011;37709;53.480;9.688;2023-03-19T02:43:09;4.53;;;3.83;;
2406;SDS011;37709;53.480;9.688;2023-03-19T02:45:37;3.57;;;3.27;;
2406;SDS011;37709;53.480;9.688;2023-03-19T02:48:04;4.30;;;3.90;;
2406;SDS011;37709;53.480;9.688;2023-03-19T02:50:32;5.80;;;3.73;;
2406;SDS011;37709;53.480;9.688;2023-03-19T02:53:00;4.50;;;3.60;;
2406;SDS011;37709;53.480;9.688;2023-03-19T02:55:27;3.60;;;3.30;;
2406;SDS011;37709;53.480;9.688;2023-03-19T02:57:54;4.43;;;3.13;;
2406;SDS011;37709;53.480;9.688;2023-03-19T03:00:21;4.63;;;3.40;;
2406;SDS011;37709;53.480;9.688;2023-03-19T03:02:49;3.40;;;3.10;;
2406;SDS011;37709;53.480;9.688;2023-03-19T03:05:17;3.43;;;3.13;;
2406;SDS011;37709;53.480;9.688;2023-03-19T03:07:46;3.40;;;3.10;;
2406;SDS011;37709;53.480;9.688;2023-03-19T03:10:13;3.30;;;3.00;;
2406;SDS011;37709;53.480;9.688;2023-03-19T03:12:41;4.50;;;3.07;;
2406;SDS011;37709;53.480;9.688;2023-03-19T03:15:09;4.57;;;3.20;;
2406;SDS011;37709;53.480;9.688;2023-03-19T03:17:38;4.00;;;3.60;;
2406;SDS011;37709;53.480;9.688;2023-03-19T03:20:08;3.53;;;3.23;;
2406;SDS011;37709;53.480;9.688;2023-03-19T03:22:37;3.57;;;3.23;;
2406;SDS011;37709;53.480;9.688;2023-03-19T03:25:05;4.83;;;3.20;;
2406;SDS011;37709;53.480;9.688;2023-03-19T03:27:33;3.37;;;2.77;;
2406;SDS011;37709;53.480;9.688;2023-03-19T03:30:00;4.23;;;3.20;;
2406;SDS011;37709;53.480;9.688;2023-03-19T03:32:28;3.50;;;3.20;;
2406;SDS011;37709;53.480;9.688;2023-03-19T03:34:56;3.33;;;3.13;;
2406;SDS011;37709;53.480;9.688;2023-03-19T03:37:23;3.40;;;3.10;;
2406;SDS011;37709;53.480;9.688;2023-03-19T03:39:51;3.17;;;2.83;;
2406;SDS011;37709;53.480;9.688;2023-03-19T03:42:19;3.13;;;2.83;;
2406;SDS011;37709;53.480;9.688;2023-03-19T03:44:47;5.60;;;3.83;;
2406;SDS011;37709;53.480;9.688;2023-03-19T03:47:14;3.27;;;3.03;;
2406;SDS011;37709;53.480;9.688;2023-03-19T03:49:43;3.50;;;3.20;;
2406;SDS011;37709;53.480;9.688;2023-03-19T03:52:12;3.37;;;3.07;;
2406;SDS011;37709;53.480;9.688;2023-03-19T03:54:39;2.97;;;2.70;;
2406;SDS011;37709;53.480;9.688;2023-03-19T03:57:06;3.17;;;2.87;;
2406;SDS011;37709;53.480;9.688;2023-03-19T03:59:34;3.63;;;2.57;;
2406;SDS011;37709;53.480;9.688;2023-03-19T04:02:02;4.27;;;3.97;;
2406;SDS011;37709;53.480;9.688;2023-03-19T04:04:29;3.40;;;2.70;;
2406;SDS011;37709;53.480;9.688;2023-03-19T04:06:56;4.07;;;3.60;;
2406;SDS011;37709;53.480;9.688;2023-03-19T04:09:55;3.10;;;2.60;;
2406;SDS011;37709;53.480;9.688;2023-03-19T04:12:24;3.07;;;2.80;;
2406;SDS011;37709;53.480;9.688;2023-03-19T04:14:52;3.20;;;2.90;;
2406;SDS011;37709;53.480;9.688;2023-03-19T04:17:19;4.20;;;3.23;;
2406;SDS011;37709;53.480;9.688;2023-03-19T04:19:46;4.03;;;2.87;;
2406;SDS011;37709;53.480;9.688;2023-03-19T04:22:14;3.27;;;2.97;;
2406;SDS011;37709;53.480;9.688;2023-03-19T04:24:42;3.50;;;2.73;;
2406;SDS011;37709;53.480;9.688;2023-03-19T04:27:09;3.30;;;2.63;;
2406;SDS011;37709;53.480;9.688;2023-03-19T04:29:38;3.70;;;3.40;;
2406;SDS011;37709;53.480;9.688;2023-03-19T04:32:05;4.00;;;3.23;;
2406;SDS011;37709;53.480;9.688;2023-03-19T04:34:33;3.93;;;3.30;;
2406;SDS011;37709;53.480;9.688;2023-03-19T04:37:00;4.20;;;3.80;;
2406;SDS011;37709;53.480;9.688;2023-03-19T04:39:29;4.00;;;3.60;;
2406;SDS011;37709;53.480;9.688;2023-03-19T04:41:57;3.70;;;3.27;;
2406;SDS011;37709;53.480;9.688;2023-03-19T04:44:40;3.90;;;3.27;;
2406;SDS011;37709;53.480;9.688;2023-03-19T04:47:08;4.17;;;3.23;;
2406;SDS011;37709;53.480;9.688;2023-03-19T04:49:47;3.63;;;3.33;;
2406;SDS011;37709;53.480;9.688;2023-03-19T04:52:17;4.03;;;3.63;;
2406;SDS011;37709;53.480;9.688;2023-03-19T04:54:44;4.17;;;3.77;;
2406;SDS011;37709;53.480;9.688;2023-03-19T04:57:11;4.47;;;4.17;;
2406;SDS011;37709;53.480;9.688;2023-03-19T04:59:40;3.77;;;3.47;;
2406;SDS011;37709;53.480;9.688;2023-03-19T05:02:09;4.87;;;4.43;;
2406;SDS011;37709;53.480;9.688;2023-03-19T05:04:38;5.90;;;4.83;;
2406;SDS011;37709;53.480;9.688;2023-03-19T05:07:08;5.27;;;4.77;;
2406;SDS011;37709;53.480;9.688;2023-03-19T05:09:36;5.73;;;4.93;;
2406;SDS011;37709;53.480;9.688;2023-03-19T05:12:04;5.40;;;4.63;;
2406;SDS011;37709;53.480;9.688;2023-03-19T05:14:38;5.40;;;4.90;;
2406;SDS011;37709;53.480;9.688;2023-03-19T05:17:32;4.97;;;4.57;;
2406;SDS011;37709;53.480;9.688;2023-03-19T05:20:09;5.93;;;5.20;;
2406;SDS011;37709;53.480;9.688;2023-03-19T05:22:43;6.10;;;5.40;;
2406;SDS011;37709;53.480;9.688;2023-03-19T05:25:13;6.80;;;5.60;;
2406;SDS011;37709;53.480;9.688;2023-03-19T05:27:41;6.13;;;5.57;;
2406;SDS011;37709;53.480;9.688;2023-03-19T05:30:15;5.30;;;4.80;;
2406;SDS011;37709;53.480;9.688;2023-03-19T05:33:00;6.20;;;5.60;;
2406;SDS011;37709;53.480;9.688;2023-03-19T05:35:35;6.30;;;5.73;;
2406;SDS011;37709;53.480;9.688;2023-03-19T05:38:08;6.00;;;5.23;;
2406;SDS011;37709;53.480;9.688;2023-03-19T05:40:38;6.10;;;5.33;;
2406;SDS011;37709;53.480;9.688;2023-03-19T05:43:19;5.77;;;5.10;;
2406;SDS011;37709;53.480;9.688;2023-03-19T05:45:50;6.47;;;5.73;;
2406;SDS011;37709;53.480;9.688;2023-03-19T05:48:26;5.60;;;5.10;;
2406;SDS011;37709;53.480;9.688;2023-03-19T05:50:53;6.40;;;5.80;;
2406;SDS011;37709;53.480;9.688;2023-03-19T05:53:21;7.87;;;6.10;;
2406;SDS011;37709;53.480;9.688;2023-03-19T05:56:07;6.60;;;6.00;;
2406;SDS011;37709;53.480;9.688;2023-03-19T05:58:46;6.43;;;5.73;;
2406;SDS011;37709;53.480;9.688;2023-03-19T06:01:17;5.90;;;5.40;;
2406;SDS011;37709;53.480;9.688;2023-03-19T06:03:44;7.50;;;5.90;;
2406;SDS011;37709;53.480;9.688;2023-03-19T06:06:13;7.27;;;6.63;;
2406;SDS011;37709;53.480;9.688;2023-03-19T06:08:47;7.00;;;6.30;;
2406;SDS011;37709;53.480;9.688;2023-03-19T06:11:30;7.17;;;6.50;;
2406;SDS011;37709;53.480;9.688;2023-03-19T06:14:21;7.57;;;6.87;;
2406;SDS011;37709;53.480;9.688;2023-03-19T06:17:05;7.57;;;6.73;;
2406;SDS011;37709;53.480;9.688;2023-03-19T06:19:35;7.67;;;6.97;;
2406;SDS011;37709;53.480;9.688;2023-03-19T06:22:02;7.97;;;7.27;;
2406;SDS011;37709;53.480;9.688;2023-03-19T06:24:29;8.43;;;7.60;;
2406;SDS011;37709;53.480;9.688;2023-03-19T06:26:57;9.23;;;7.60;;
2406;SDS011;37709;53.480;9.688;2023-03-19T06:29:24;8.57;;;7.87;;
2406;SDS011;37709;53.480;9.688;2023-03-19T06:32:00;8.10;;;7.30;;
2406;SDS011;37709;53.480;9.688;2023-03-19T06:34:39;7.93;;;7.13;;
2406;SDS011;37709;53.480;9.688;2023-03-19T06:37:06;8.20;;;7.50;;
2406;SDS011;37709;53.480;9.688;2023-03-19T06:39:34;7.80;;;7.03;;
2406;SDS011;37709;53.480;9.688;2023-03-19T06:42:01;8.27;;;7.47;;
2406;SDS011;37709;53.480;9.688;2023-03-19T06:44:29;7.80;;;7.10;;
2406;SDS011;37709;53.480;9.688;2023-03-19T06:46:56;7.07;;;6.37;;
2406;SDS011;37709;53.480;9.688;2023-03-19T06:49:24;8.33;;;7.50;;
2406;SDS011;37709;53.480;9.688;2023-03-19T06:51:51;7.73;;;7.03;;
2406;SDS011;37709;53.480;9.688;2023-03-19T06:54:19;8.70;;;7.83;;
2406;SDS011;37709;53.480;9.688;2023-03-19T06:56:46;8.80;;;8.03;;
2406;SDS011;37709;53.480;9.688;2023-03-19T06:59:15;8.77;;;7.87;;
2406;SDS011;37709;53.480;9.688;2023-03-19T07:01:42;7.70;;;7.00;;
2406;SDS011;37709;53.480;9.688;2023-03-19T07:04:09;8.93;;;8.03;;
2406;SDS011;37709;53.480;9.688;2023-03-19T07:06:37;9.50;;;8.53;;
2406;SDS011;37709;53.480;9.688;2023-03-19T07:09:04;8.63;;;7.73;;
2406;SDS011;37709;53.480;9.688;2023-03-19T07:11:31;8.30;;;7.50;;
2406;SDS011;37709;53.480;9.688;2023-03-19T07:14:02;7.87;;;7.17;;
2406;SDS011;37709;53.480;9.688;2023-03-19T07:16:29;7.57;;;6.87;;
2406;SDS011;37709;53.480;9.688;2023-03-19T07:18:57;8.70;;;8.00;;
2406;SDS011;37709;53.480;9.688;2023-03-19T07:21:24;8.87;;;8.03;;
2406;SDS011;37709;53.480;9.688;2023-03-19T07:23:51;8.90;;;8.00;;
2406;SDS011;37709;53.480;9.688;2023-03-19T07:26:18;8.03;;;7.33;;
2406;SDS011;37709;53.480;9.688;2023-03-19T07:28:46;7.90;;;7.20;;
2406;SDS011;37709;53.480;9.688;2023-03-19T07:31:14;8.20;;;7.40;;
2406;SDS011;37709;53.480;9.688;2023-03-19T07:33:42;8.60;;;7.80;;
2406;SDS011;37709;53.480;9.688;2023-03-19T07:36:10;8.50;;;7.80;;
2406;SDS011;37709;53.480;9.688;2023-03-19T07:38:38;8.37;;;7.67;;
2406;SDS011;37709;53.480;9.688;2023-03-19T07:41:05;6.73;;;6.20;;
2406;SDS011;37709;53.480;9.688;2023-03-19T07:43:32;8.57;;;7.87;;
2406;SDS011;37709;53.480;9.688;2023-03-19T07:46:00;7.77;;;7.13;;
2406;SDS011;37709;53.480;9.688;2023-03-19T07:48:27;9.80;;;7.17;;
2406;SDS011;37709;53.480;9.688;2023-03-19T07:50:55;8.20;;;7.40;;
2406;SDS011;37709;53.480;9.688;2023-03-19T07:53:22;7.63;;;6.93;;
2406;SDS011;37709;53.480;9.688;2023-03-19T07:55:50;7.27;;;6.57;;
2406;SDS011;37709;53.480;9.688;2023-03-19T07:58:17;7.70;;;7.00;;
2406;SDS011;37709;53.480;9.688;2023-03-19T08:00:44;7.20;;;6.57;;
2406;SDS011;37709;53.480;9.688;2023-03-19T08:03:16;7.23;;;6.53;;
2406;SDS011;37709;53.480;9.688;2023-03-19T08:05:43;7.57;;;6.80;;
2406;SDS011;37709;53.480;9.688;2023-03-19T08:08:10;6.67;;;6.07;;
2406;SDS011;37709;53.480;9.688;2023-03-19T08:10:37;6.20;;;5.70;;
2406;SDS011;37709;53.480;9.688;2023-03-19T08:13:05;7.20;;;6.60;;
2406;SDS011;37709;53.480;9.688;2023-03-19T08:15:32;6.80;;;5.80;;
2406;SDS011;37709;53.480;9.688;2023-03-19T08:18:01;6.40;;;5.80;;
2406;SDS011;37709;53.480;9.688;2023-03-19T08:20:31;9.53;;;6.77;;
2406;SDS011;37709;53.480;9.688;2023-03-19T08:22:59;6.30;;;5.80;;
2406;SDS011;37709;53.480;9.688;2023-03-19T08:25:26;5.77;;;5.17;;
2406;SDS011;37709;53.480;9.688;2023-03-19T08:27:58;6.53;;;5.93;;
2406;SDS011;37709;53.480;9.688;2023-03-19T08:30:26;6.20;;;5.70;;
2406;SDS011;37709;53.480;9.688;2023-03-19T08:32:54;5.47;;;5.03;;
2406;SDS011;37709;53.480;9.688;2023-03-19T08:35:23;5.80;;;5.30;;
2406;SDS011;37709;53.480;9.688;2023-03-19T08:37:53;5.70;;;5.20;;
2406;SDS011;37709;53.480;9.688;2023-03-19T08:40:21;5.57;;;5.07;;
2406;SDS011;37709;53.480;9.688;2023-03-19T08:42:49;4.80;;;4.30;;
2406;SDS011;37709;53.480;9.688;2023-03-19T08:45:17;5.43;;;4.93;;
2406;SDS011;37709;53.480;9.688;2023-03-19T08:47:44;5.07;;;4.60;;
2406;SDS011;37709;53.480;9.688;2023-03-19T08:50:12;5.03;;;4.63;;
2406;SDS011;37709;53.480;9.688;2023-03-19T08:52:39;5.10;;;4.70;;
2406;SDS011;37709;53.480;9.688;2023-03-19T08:55:07;5.37;;;4.87;;
2406;SDS011;37709;53.480;9.688;2023-03-19T08:57:35;5.37;;;4.87;;
2406;SDS011;37709;53.480;9.688;2023-03-19T09:00:03;5.90;;;5.30;;
2406;SDS011;37709;53.480;9.688;2023-03-19T09:02:31;8.17;;;4.97;;
2406;SDS011;37709;53.480;9.688;2023-03-19T09:04:58;5.37;;;4.73;;
2406;SDS011;37709;53.480;9.688;2023-03-19T09:07:26;6.30;;;4.73;;
2406;SDS011;37709;53.480;9.688;2023-03-19T09:09:54;5.80;;;5.13;;
2406;SDS011;37709;53.480;9.688;2023-03-19T09:12:21;5.93;;;5.30;;
2406;SDS011;37709;53.480;9.688;2023-03-19T09:14:48;5.83;;;5.33;;
2406;SDS011;37709;53.480;9.688;2023-03-19T09:17:16;5.10;;;4.53;;
2406;SDS011;37709;53.480;9.688;2023-03-19T09:19:43;5.63;;;4.93;;
2406;SDS011;37709;53.480;9.688;2023-03-19T09:22:11;5.73;;;5.23;;
2406;SDS011;37709;53.480;9.688;2023-03-19T09:24:38;5.83;;;5.10;;
2406;SDS011;37709;53.480;9.688;2023-03-19T09:27:06;5.13;;;4.73;;
2406;SDS011;37709;53.480;9.688;2023-03-19T09:29:34;5.63;;;5.00;;
2406;SDS011;37709;53.480;9.688;2023-03-19T09:32:01;7.03;;;6.20;;
2406;SDS011;37709;53.480;9.688;2023-03-19T09:34:29;5.63;;;5.13;;
2406;SDS011;37709;53.480;9.688;2023-03-19T09:36:56;5.63;;;5.13;;
2406;SDS011;37709;53.480;9.688;2023-03-19T09:39:23;6.13;;;5.53;;
2406;SDS011;37709;53.480;9.688;2023-03-19T09:44:56;5.23;;;4.83;;
2406;SDS011;37709;53.480;9.688;2023-03-19T09:47:28;5.00;;;4.43;;
2406;SDS011;37709;53.480;9.688;2023-03-19T09:49:59;5.53;;;5.03;;
2406;SDS011;37709;53.480;9.688;2023-03-19T09:58:09;4.90;;;4.50;;
2406;SDS011;37709;53.480;9.688;2023-03-19T10:00:47;6.43;;;4.70;;
2406;SDS011;37709;53.480;9.688;2023-03-19T10:03:26;5.20;;;4.63;;
2406;SDS011;37709;53.480;9.688;2023-03-19T10:09:08;5.50;;;4.60;;
2406;SDS011;37709;53.480;9.688;2023-03-19T10:18:14;5.60;;;4.67;;
2406;SDS011;37709;53.480;9.688;2023-03-19T10:20:23;5.00;;;4.20;;
2406;SDS011;37709;53.480;9.688;2023-03-19T10:23:09;4.47;;;4.07;;
2406;SDS011;37709;53.480;9.688;2023-03-19T10:25:53;8.90;;;4.43;;
2406;SDS011;37709;53.480;9.688;2023-03-19T10:28:23;4.50;;;4.10;;
2406;SDS011;37709;53.480;9.688;2023-03-19T10:30:54;5.67;;;3.70;;
2406;SDS011;37709;53.480;9.688;2023-03-19T10:33:24;4.60;;;4.23;;
2406;SDS011;37709;53.480;9.688;2023-03-19T10:36:06;5.03;;;4.30;;
2406;SDS011;37709;53.480;9.688;2023-03-19T10:38:38;3.67;;;3.37;;
2406;SDS011;37709;53.480;9.688;2023-03-19T10:43:50;3.90;;;3.60;;
2406;SDS011;37709;53.480;9.688;2023-03-19T10:46:20;14.67;;;4.67;;
2406;SDS011;37709;53.480;9.688;2023-03-19T10:48:48;4.20;;;3.90;;
2406;SDS011;37709;53.480;9.688;2023-03-19T10:51:18;4.40;;;3.83;;
2406;SDS011;37709;53.480;9.688;2023-03-19T10:53:49;4.50;;;4.10;;
2406;SDS011;37709;53.480;9.688;2023-03-19T10:56:25;4.90;;;4.20;;
2406;SDS011;37709;53.480;9.688;2023-03-19T10:58:59;4.70;;;4.30;;
2406;SDS011;37709;53.480;9.688;2023-03-19T11:01:33;4.83;;;4.43;;
2406;SDS011;37709;53.480;9.688;2023-03-19T11:04:12;4.83;;;4.33;;
2406;SDS011;37709;53.480;9.688;2023-03-19T11:06:51;3.83;;;3.53;;
2406;SDS011;37709;53.480;9.688;2023-03-19T11:09:23;4.00;;;3.70;;
2406;SDS011;37709;53.480;9.688;2023-03-19T11:14:52;3.90;;;3.50;;
2406;SDS011;37709;53.480;9.688;2023-03-19T11:17:23;4.50;;;3.90;;
2406;SDS011;37709;53.480;9.688;2023-03-19T11:19:54;3.50;;;3.20;;
2406;SDS011;37709;53.480;9.688;2023-03-19T11:22:25;2.90;;;2.70;;
2406;SDS011;37709;53.480;9.688;2023-03-19T11:25:01;3.20;;;2.70;;
2406;SDS011;37709;53.480;9.688;2023-03-19T11:27:40;3.40;;;2.90;;
2406;SDS011;37709;53.480;9.688;2023-03-19T11:30:16;3.33;;;2.83;;
2406;SDS011;37709;53.480;9.688;2023-03-19T11:35:43;2.50;;;2.30;;
2406;SDS011;37709;53.480;9.688;2023-03-19T11:41:16;2.80;;;2.60;;
2406;SDS011;37709;53.480;9.688;2023-03-19T11:46:35;4.57;;;2.40;;
2406;SDS011;37709;53.480;9.688;2023-03-19T11:49:31;3.10;;;2.53;;
2406;SDS011;37709;53.480;9.688;2023-03-19T11:52:12;2.70;;;2.47;;
2406;SDS011;37709;53.480;9.688;2023-03-19T12:03:10;2.50;;;2.30;;
2406;SDS011;37709;53.480;9.688;2023-03-19T12:06:09;2.80;;;2.60;;
2406;SDS011;37709;53.480;9.688;2023-03-19T12:09:09;2.67;;;2.40;;
2406;SDS011;37709;53.480;9.688;2023-03-19T12:14:35;4.00;;;2.53;;
2406;SDS011;37709;53.480;9.688;2023-03-19T12:17:32;2.83;;;2.20;;
2406;SDS011;37709;53.480;9.688;2023-03-19T12:20:10;4.03;;;2.23;;
2406;SDS011;37709;53.480;9.688;2023-03-19T12:22:51;3.03;;;1.90;;
2406;SDS011;37709;53.480;9.688;2023-03-19T12:28:13;2.90;;;2.60;;
2406;SDS011;37709;53.480;9.688;2023-03-19T12:30:56;3.23;;;2.90;;
2406;SDS011;37709;53.480;9.688;2023-03-19T12:33:41;3.70;;;3.27;;
2406;SDS011;37709;53.480;9.688;2023-03-19T12:36:15;4.20;;;2.80;;
2406;SDS011;37709;53.480;9.688;2023-03-19T12:38:48;3.10;;;2.80;;
2406;SDS011;37709;53.480;9.688;2023-03-19T12:41:23;2.83;;;2.50;;
2406;SDS011;37709;53.480;9.688;2023-03-19T12:43:54;3.60;;;2.90;;
2406;SDS011;37709;53.480;9.688;2023-03-19T12:46:32;3.00;;;2.63;;
2406;SDS011;37709;53.480;9.688;2023-03-19T12:49:06;3.50;;;3.20;;
2406;SDS011;37709;53.480;9.688;2023-03-19T12:51:42;3.50;;;2.60;;
2406;SDS011;37709;53.480;9.688;2023-03-19T12:54:17;4.40;;;3.40;;
2406;SDS011;37709;53.480;9.688;2023-03-19T12:57:08;2.73;;;2.23;;
2406;SDS011;37709;53.480;9.688;2023-03-19T12:59:52;3.23;;;2.90;;
2406;SDS011;37709;53.480;9.688;2023-03-19T13:02:35;3.77;;;3.30;;
2406;SDS011;37709;53.480;9.688;2023-03-19T13:05:17;4.03;;;2.57;;
2406;SDS011;37709;53.480;9.688;2023-03-19T13:10:42;3.47;;;3.17;;
2406;SDS011;37709;53.480;9.688;2023-03-19T13:13:34;3.80;;;3.37;;
2406;SDS011;37709;53.480;9.688;2023-03-19T13:16:09;4.30;;;3.50;;
2406;SDS011;37709;53.480;9.688;2023-03-19T13:21:51;3.67;;;3.37;;
2406;SDS011;37709;53.480;9.688;2023-03-19T13:24:35;3.97;;;3.30;;
2406;SDS011;37709;53.480;9.688;2023-03-19T13:27:05;3.93;;;3.47;;
2406;SDS011;37709;53.480;9.688;2023-03-19T13:29:34;3.97;;;3.57;;
2406;SDS011;37709;53.480;9.688;2023-03-19T13:32:06;3.80;;;2.80;;
2406;SDS011;37709;53.480;9.688;2023-03-19T13:34:36;4.40;;;3.30;;
2406;SDS011;37709;53.480;9.688;2023-03-19T13:37:11;4.90;;;3.20;;
2406;SDS011;37709;53.480;9.688;2023-03-19T13:39:42;4.10;;;3.60;;
2406;SDS011;37709;53.480;9.688;2023-03-19T13:42:23;5.00;;;3.93;;
2406;SDS011;37709;53.480;9.688;2023-03-19T13:45:26;5.60;;;4.00;;
2406;SDS011;37709;53.480;9.688;2023-03-19T13:47:57;4.43;;;4.03;;
2406;SDS011;37709;53.480;9.688;2023-03-19T13:50:54;4.23;;;3.83;;
2406;SDS011;37709;53.480;9.688;2023-03-19T13:53:43;4.87;;;4.33;;
2406;SDS011;37709;53.480;9.688;2023-03-19T13:56:27;6.57;;;3.50;;
2406;SDS011;37709;53.480;9.688;2023-03-19T14:01:42;4.00;;;3.60;;
2406;SDS011;37709;53.480;9.688;2023-03-19T14:04:14;5.20;;;3.97;;
2406;SDS011;37709;53.480;9.688;2023-03-19T14:10:11;4.83;;;4.43;;
2406;SDS011;37709;53.480;9.688;2023-03-19T14:12:37;4.03;;;3.60;;
2406;SDS011;37709;53.480;9.688;2023-03-19T14:18:00;4.77;;;4.37;;
2406;SDS011;37709;53.480;9.688;2023-03-19T14:20:34;5.80;;;5.20;;
2406;SDS011;37709;53.480;9.688;2023-03-19T14:23:24;5.73;;;5.20;;
2406;SDS011;37709;53.480;9.688;2023-03-19T14:29:15;5.63;;;5.13;;
2406;SDS011;37709;53.480;9.688;2023-03-19T14:31:45;5.50;;;5.00;;
2406;SDS011;37709;53.480;9.688;2023-03-19T14:34:26;6.07;;;5.57;;
2406;SDS011;37709;53.480;9.688;2023-03-19T14:37:03;6.13;;;5.63;;
2406;SDS011;37709;53.480;9.688;2023-03-19T14:39:58;6.93;;;6.30;;
2406;SDS011;37709;53.480;9.688;2023-03-19T14:42:48;9.87;;;7.40;;
2406;SDS011;37709;53.480;9.688;2023-03-19T14:45:58;7.97;;;7.27;;
2406;SDS011;37709;53.480;9.688;2023-03-19T14:54:22;8.23;;;7.53;;
2406;SDS011;37709;53.480;9.688;2023-03-19T14:57:07;9.60;;;8.60;;
2406;SDS011;37709;53.480;9.688;2023-03-19T14:59:42;9.50;;;8.57;;
2406;SDS011;37709;53.480;9.688;2023-03-19T15:02:44;9.00;;;8.10;;
2406;SDS011;37709;53.480;9.688;2023-03-19T15:05:08;8.90;;;8.00;;
2406;SDS011;37709;53.480;9.688;2023-03-19T15:07:46;9.77;;;8.87;;
2406;SDS011;37709;53.480;9.688;2023-03-19T15:10:18;10.27;;;9.37;;
2406;SDS011;37709;53.480;9.688;2023-03-19T15:12:50;12.63;;;11.60;;
2406;SDS011;37709;53.480;9.688;2023-03-19T15:15:22;12.63;;;11.53;;
2406;SDS011;37709;53.480;9.688;2023-03-19T15:18:07;12.40;;;11.40;;
2406;SDS011;37709;53.480;9.688;2023-03-19T15:20:37;13.53;;;12.23;;
2406;SDS011;37709;53.480;9.688;2023-03-19T15:23:10;13.40;;;12.27;;
2406;SDS011;37709;53.480;9.688;2023-03-19T15:26:00;14.10;;;12.77;;
2406;SDS011;37709;53.480;9.688;2023-03-19T15:28:29;9.50;;;8.67;;
2406;SDS011;37709;53.480;9.688;2023-03-19T15:31:02;14.67;;;13.47;;
2406;SDS011;37709;53.480;9.688;2023-03-19T15:33:52;13.50;;;12.40;;
2406;SDS011;37709;53.480;9.688;2023-03-19T15:36:23;12.97;;;11.87;;
2406;SDS011;37709;53.480;9.688;2023-03-19T15:39:04;12.07;;;11.17;;
2406;SDS011;37709;53.480;9.688;2023-03-19T15:41:34;10.27;;;9.37;;
2406;SDS011;37709;53.480;9.688;2023-03-19T15:44:07;8.20;;;7.53;;
2406;SDS011;37709;53.480;9.688;2023-03-19T15:46:39;9.10;;;8.20;;
2406;SDS011;37709;53.480;9.688;2023-03-19T15:49:19;8.73;;;8.03;;
2406;SDS011;37709;53.480;9.688;2023-03-19T15:52:03;9.50;;;8.60;;
2406;SDS011;37709;53.480;9.688;2023-03-19T15:54:34;8.70;;;7.90;;
2406;SDS011;37709;53.480;9.688;2023-03-19T15:57:02;8.50;;;7.80;;
2406;SDS011;37709;53.480;9.688;2023-03-19T15:59:31;8.23;;;7.53;;
2406;SDS011;37709;53.480;9.688;2023-03-19T16:01:59;8.20;;;7.40;;
2406;SDS011;37709;53.480;9.688;2023-03-19T16:04:29;7.20;;;6.60;;
2406;SDS011;37709;53.480;9.688;2023-03-19T16:07:13;7.13;;;6.50;;
2406;SDS011;37709;53.480;9.688;2023-03-19T16:09:49;8.00;;;7.30;;
2406;SDS011;37709;53.480;9.688;2023-03-19T16:12:36;8.60;;;7.70;;
2406;SDS011;37709;53.480;9.688;2023-03-19T16:21:01;9.00;;;7.40;;
2406;SDS011;37709;53.480;9.688;2023-03-19T16:23:37;7.97;;;7.27;;
2406;SDS011;37709;53.480;9.688;2023-03-19T16:26:15;7.93;;;7.23;;
2406;SDS011;37709;53.480;9.688;2023-03-19T16:29:02;7.77;;;7.10;;
2406;SDS011;37709;53.480;9.688;2023-03-19T16:31:47;7.70;;;6.90;;
2406;SDS011;37709;53.480;9.688;2023-03-19T16:34:21;8.20;;;7.50;;
2406;SDS011;37709;53.480;9.688;2023-03-19T16:37:25;8.33;;;7.63;;
2406;SDS011;37709;53.480;9.688;2023-03-19T16:47:45;8.80;;;8.00;;
2406;SDS011;37709;53.480;9.688;2023-03-19T16:50:15;9.17;;;8.37;;
2406;SDS011;37709;53.480;9.688;2023-03-19T16:52:45;9.10;;;8.20;;
2406;SDS011;37709;53.480;9.688;2023-03-19T16:55:21;9.13;;;8.33;;
2406;SDS011;37709;53.480;9.688;2023-03-19T16:57:56;8.77;;;7.97;;
2406;SDS011;37709;53.480;9.688;2023-03-19T17:00:27;9.90;;;8.80;;
2406;SDS011;37709;53.480;9.688;2023-03-19T17:02:58;9.77;;;8.97;;
2406;SDS011;37709;53.480;9.688;2023-03-19T17:05:26;8.40;;;7.70;;